createdAt,value
2018-02-22T00:00:16.465Z,78.06
2018-02-22T00:02:44.972Z,78.20
2018-02-22T00:05:13.492Z,78.07
2018-02-22T00:07:42.822Z,78.82
2018-02-22T00:10:11.358Z,78.62
2018-02-22T00:12:39.887Z,78.57
2018-02-22T00:15:08.408Z,78.81
2018-02-22T00:17:36.915Z,78.85
2018-02-22T00:20:05.480Z,79.20
2018-02-22T00:22:34.021Z,78.60
2018-02-22T00:25:02.560Z,78.88
2018-02-22T00:27:31.681Z,78.40
2018-02-22T00:30:00.219Z,78.21
2018-02-22T00:32:28.859Z,78.50
2018-02-22T00:34:57.367Z,78.28
2018-02-22T00:37:25.872Z,78.05
2018-02-22T00:39:54.401Z,77.94
2018-02-22T00:42:22.925Z,77.94
2018-02-22T00:44:51.499Z,77.79
2018-02-22T00:47:20.050Z,77.58
2018-02-22T00:49:48.783Z,77.69
2018-02-22T00:52:17.307Z,77.26
2018-02-22T00:54:46.592Z,77.78
2018-02-22T00:57:15.923Z,77.67
2018-02-22T00:59:44.461Z,77.07
2018-02-22T01:02:13.061Z,76.84
2018-02-22T01:04:42.345Z,77.06
2018-02-22T01:07:10.883Z,76.99
2018-02-22T01:09:39.440Z,77.12
2018-02-22T01:12:07.960Z,76.90
2018-02-22T01:14:37.240Z,77.03
2018-02-22T01:17:05.788Z,76.93
2018-02-22T01:19:35.076Z,76.76
2018-02-22T01:22:03.652Z,76.73
2018-02-22T01:24:32.147Z,76.70
2018-02-22T01:27:01.445Z,76.74
2018-02-22T01:29:30.739Z,76.74
2018-02-22T01:31:59.262Z,76.40
2018-02-22T01:34:27.848Z,75.66
2018-02-22T01:36:56.383Z,75.82
2018-02-22T01:39:24.897Z,75.33
2018-02-22T01:41:53.416Z,75.52
2018-02-22T01:44:21.977Z,75.40
2018-02-22T01:46:50.541Z,75.52
2018-02-22T01:49:19.058Z,75.61
2018-02-22T01:51:47.583Z,75.55
2018-02-22T01:54:16.884Z,75.61
2018-02-22T01:56:46.220Z,75.82
2018-02-22T01:59:14.802Z,75.29
2018-02-22T02:01:43.380Z,75.39
2018-02-22T02:04:11.883Z,75.26
2018-02-22T02:06:40.413Z,75.15
2018-02-22T02:09:09.708Z,74.85
2018-02-22T02:11:38.291Z,75.20
2018-02-22T02:14:06.812Z,75.19
2018-02-22T02:16:35.316Z,75.06
2018-02-22T02:19:03.833Z,75.30
2018-02-22T02:21:32.402Z,75.03
2018-02-22T02:24:00.982Z,75.11
2018-02-22T02:26:29.624Z,75.12
2018-02-22T02:28:58.234Z,75.33
2018-02-22T02:31:26.808Z,75.11
2018-02-22T02:33:55.400Z,74.93
2018-02-22T02:36:23.957Z,74.73
2018-02-22T02:38:52.593Z,74.92
2018-02-22T02:41:21.152Z,75.38
2018-02-22T02:43:49.733Z,74.65
2018-02-22T02:46:18.343Z,74.56
2018-02-22T02:48:46.921Z,74.86
2018-02-22T02:51:15.541Z,75.31
2018-02-22T02:53:44.121Z,75.44
2018-02-22T02:56:12.695Z,75.05
2018-02-22T02:58:42.048Z,74.88
2018-02-22T03:01:10.633Z,74.46
2018-02-22T03:03:39.270Z,75.08
2018-02-22T03:06:08.590Z,74.52
2018-02-22T03:08:37.133Z,74.78
2018-02-22T03:11:05.710Z,75.05
2018-02-22T03:13:34.278Z,74.89
2018-02-22T03:16:02.905Z,75.26
2018-02-22T03:18:32.264Z,75.57
2018-02-22T03:21:00.834Z,74.79
2018-02-22T03:23:29.398Z,74.64
2018-02-22T03:25:57.958Z,74.25
2018-02-22T03:28:26.588Z,73.57
2018-02-22T03:30:55.167Z,73.65
2018-02-22T03:33:23.762Z,73.21
2018-02-22T03:35:52.316Z,73.78
2018-02-22T03:38:20.887Z,73.22
2018-02-22T03:40:49.505Z,73.78
2018-02-22T03:43:18.080Z,74.26
2018-02-22T03:45:46.647Z,74.49
2018-02-22T03:48:15.227Z,74.46
2018-02-22T03:50:43.787Z,74.56
2018-02-22T03:53:13.184Z,74.35
2018-02-22T03:55:42.541Z,73.03
2018-02-22T03:58:11.118Z,74.24
2018-02-22T04:00:39.733Z,74.23
2018-02-22T04:03:08.304Z,73.91
2018-02-22T04:05:36.931Z,74.06
2018-02-22T04:08:05.498Z,73.47
2018-02-22T04:10:34.817Z,74.67
2018-02-22T04:13:03.446Z,74.79
2018-02-22T04:15:32.022Z,74.77
2018-02-22T04:18:00.692Z,74.92
2018-02-22T04:20:30.122Z,74.46
2018-02-22T04:22:58.770Z,74.40
2018-02-22T04:25:27.362Z,74.38
2018-02-22T04:27:55.983Z,74.09
2018-02-22T04:30:24.664Z,74.71
2018-02-22T04:32:53.271Z,74.43
2018-02-22T04:35:22.626Z,74.79
2018-02-22T04:37:51.260Z,74.48
2018-02-22T04:40:20.630Z,74.70
2018-02-22T04:42:49.291Z,74.55
2018-02-22T04:45:17.878Z,73.81
2018-02-22T04:47:46.498Z,74.10
2018-02-22T04:50:15.123Z,74.25
2018-02-22T04:52:43.759Z,73.03
2018-02-22T04:55:12.410Z,73.67
2018-02-22T04:57:40.981Z,73.59
2018-02-22T05:00:09.598Z,72.80
2018-02-22T05:02:38.277Z,72.30
2018-02-22T05:05:06.899Z,72.12
2018-02-22T05:07:36.303Z,72.50
2018-02-22T05:10:05.694Z,72.47
2018-02-22T05:12:34.321Z,72.76
2018-02-22T05:15:02.917Z,72.80
2018-02-22T05:17:31.513Z,72.93
2018-02-22T05:20:00.159Z,73.53
2018-02-22T05:22:28.782Z,73.62
2018-02-22T05:24:57.409Z,73.13
2018-02-22T05:27:26.795Z,73.89
2018-02-22T05:29:55.422Z,73.59
2018-02-22T05:32:24.057Z,74.59
2018-02-22T05:34:52.690Z,74.35
2018-02-22T05:37:21.301Z,74.39
2018-02-22T05:39:49.899Z,74.81
2018-02-22T05:42:18.562Z,74.31
2018-02-22T05:44:47.224Z,74.09
2018-02-22T05:47:15.863Z,74.72
2018-02-22T05:49:44.463Z,74.41
2018-02-22T05:52:13.843Z,73.70
2018-02-22T05:54:42.454Z,74.05
2018-02-22T05:57:12.033Z,74.43
2018-02-22T05:59:40.613Z,73.61
2018-02-22T06:02:09.213Z,73.88
2018-02-22T06:04:37.826Z,73.59
2018-02-22T06:07:06.495Z,73.02
2018-02-22T06:09:35.905Z,72.92
2018-02-22T06:12:05.270Z,72.91
2018-02-22T06:14:33.884Z,73.06
2018-02-22T06:17:03.245Z,73.63
2018-02-22T06:19:31.906Z,73.41
2018-02-22T06:22:00.683Z,73.10
2018-02-22T06:24:29.543Z,73.51
2018-02-22T06:26:59.083Z,73.70
2018-02-22T06:29:27.834Z,72.97
2018-02-22T06:31:57.432Z,72.86
2018-02-22T06:34:26.166Z,73.01
2018-02-22T06:36:54.933Z,73.02
2018-02-22T06:39:23.633Z,72.55
2018-02-22T06:41:52.391Z,72.67
2018-02-22T06:44:21.984Z,72.01
2018-02-22T06:46:50.733Z,72.31
2018-02-22T06:49:19.458Z,72.17
2018-02-22T06:51:48.158Z,72.34
2018-02-22T06:54:17.701Z,72.00
2018-02-22T06:56:46.557Z,72.00
2018-02-22T06:59:16.184Z,72.03
2018-02-22T07:01:44.938Z,71.30
2018-02-22T07:04:14.501Z,71.20
2018-02-22T07:06:43.366Z,71.13
2018-02-22T07:09:11.984Z,70.42
2018-02-22T07:11:40.624Z,70.48
2018-02-22T07:14:09.814Z,70.70
2018-02-22T07:16:39.173Z,69.87
2018-02-22T07:19:07.786Z,69.75
2018-02-22T07:21:37.193Z,70.15
2018-02-22T07:24:06.591Z,69.87
2018-02-22T07:26:35.946Z,71.29
2018-02-22T07:29:04.581Z,70.27
2018-02-22T07:31:33.975Z,70.50
2018-02-22T07:34:02.625Z,70.72
2018-02-22T07:36:31.287Z,70.94
2018-02-22T07:38:59.945Z,71.13
2018-02-22T07:41:29.303Z,71.05
2018-02-22T07:43:57.906Z,71.13
2018-02-22T07:46:26.537Z,72.11
2018-02-22T07:48:55.205Z,71.96
2018-02-22T07:51:23.828Z,71.67
2018-02-22T07:53:52.432Z,71.89
2018-02-22T07:56:21.093Z,71.77
2018-02-22T07:58:49.712Z,72.02
2018-02-22T08:01:18.325Z,72.08
2018-02-22T08:03:46.968Z,71.53
2018-02-22T08:06:15.640Z,71.66
2018-02-22T08:08:44.290Z,71.27
2018-02-22T08:11:13.913Z,70.99
2018-02-22T08:13:42.581Z,71.52
2018-02-22T08:16:11.266Z,71.14
2018-02-22T08:18:39.922Z,70.21
2018-02-22T08:21:09.369Z,70.79
2018-02-22T08:23:38.038Z,70.82
2018-02-22T08:26:06.731Z,70.90
2018-02-22T08:28:35.452Z,70.45
2018-02-22T08:31:04.074Z,70.65
2018-02-22T08:33:33.521Z,70.46
2018-02-22T08:36:02.124Z,70.73
2018-02-22T08:38:30.788Z,69.24
2018-02-22T08:40:59.420Z,69.66
2018-02-22T08:43:28.092Z,69.61
2018-02-22T08:45:56.782Z,69.47
2018-02-22T08:48:26.192Z,69.18
2018-02-22T08:50:55.646Z,68.63
2018-02-22T08:53:24.285Z,68.80
2018-02-22T08:55:53.662Z,69.15
2018-02-22T08:58:22.336Z,68.40
2018-02-22T09:00:51.041Z,68.50
2018-02-22T09:03:19.707Z,68.13
2018-02-22T09:05:48.367Z,68.93
2018-02-22T09:08:17.003Z,68.45
2018-02-22T09:10:45.625Z,68.23
2018-02-22T09:13:14.280Z,68.40
2018-02-22T09:15:43.717Z,69.26
2018-02-22T09:18:12.410Z,68.28
2018-02-22T09:20:41.032Z,68.06
2018-02-22T09:23:09.661Z,67.92
2018-02-22T09:25:38.296Z,67.21
2018-02-22T09:28:07.027Z,67.50
2018-02-22T09:30:35.684Z,67.14
2018-02-22T09:33:05.082Z,66.88
2018-02-22T09:35:33.711Z,66.29
2018-02-22T09:38:02.369Z,66.96
2018-02-22T09:40:31.783Z,67.41
2018-02-22T09:43:01.246Z,67.96
2018-02-22T09:45:29.923Z,67.92
2018-02-22T09:47:58.591Z,67.93
2018-02-22T09:50:27.206Z,67.51
2018-02-22T09:52:55.942Z,68.25
2018-02-22T09:55:30.868Z,67.85
2018-02-22T09:57:59.528Z,67.20
2018-02-22T10:00:28.917Z,66.88
2018-02-22T10:02:57.553Z,66.37
2018-02-22T10:05:26.176Z,67.09
2018-02-22T10:07:54.882Z,67.33
2018-02-22T10:10:24.356Z,66.80
2018-02-22T10:12:53.026Z,67.43
2018-02-22T10:15:21.687Z,66.98
2018-02-22T10:17:50.306Z,66.78
2018-02-22T10:20:18.943Z,68.26
2018-02-22T10:22:47.646Z,67.97
2018-02-22T10:25:16.274Z,68.34
2018-02-22T10:27:44.963Z,68.11
2018-02-22T10:30:13.696Z,67.35
2018-02-22T10:32:43.082Z,66.64
2018-02-22T10:35:12.560Z,67.28
2018-02-22T10:37:41.953Z,66.64
2018-02-22T10:40:10.680Z,66.80
2018-02-22T10:42:39.306Z,65.79
2018-02-22T10:45:07.913Z,66.39
2018-02-22T10:47:36.606Z,66.06
2018-02-22T10:50:06.046Z,66.00
2018-02-22T10:52:35.449Z,65.57
2018-02-22T10:55:04.069Z,66.31
2018-02-22T10:57:33.483Z,64.51
2018-02-22T11:00:02.149Z,64.78
2018-02-22T11:02:36.297Z,63.98
2018-02-22T11:05:05.000Z,64.05
2018-02-22T11:07:34.374Z,64.28
2018-02-22T11:10:02.992Z,64.48
2018-02-22T11:12:32.386Z,64.10
2018-02-22T11:15:01.734Z,63.83
2018-02-22T11:17:30.415Z,63.25
2018-02-22T11:19:59.045Z,63.24
2018-02-22T11:22:27.671Z,64.41
2018-02-22T11:24:56.463Z,63.87
2018-02-22T11:27:25.111Z,64.24
2018-02-22T11:29:54.580Z,63.34
2018-02-22T11:32:23.220Z,62.65
2018-02-22T11:34:51.871Z,62.05
2018-02-22T11:37:20.480Z,61.88
2018-02-22T11:39:49.139Z,62.36
2018-02-22T11:42:17.810Z,61.80
2018-02-22T11:44:46.398Z,62.36
2018-02-22T11:47:15.054Z,62.11
2018-02-22T11:49:44.513Z,62.08
2018-02-22T11:52:13.923Z,62.47
2018-02-22T11:54:42.604Z,61.34
2018-02-22T11:57:12.018Z,60.90
2018-02-22T11:59:40.645Z,61.87
2018-02-22T12:02:09.321Z,61.58
2018-02-22T12:04:38.100Z,61.88
2018-02-22T12:07:07.641Z,61.65
2018-02-22T12:09:36.334Z,62.20
2018-02-22T12:12:06.101Z,61.20
2018-02-22T12:14:34.743Z,61.09
2018-02-22T12:17:03.769Z,61.15
2018-02-22T12:19:32.880Z,61.08
2018-02-22T12:22:02.467Z,61.98
2018-02-22T12:24:31.322Z,61.50
2018-02-22T12:27:01.091Z,61.52
2018-02-22T12:29:29.937Z,60.76
2018-02-22T12:31:59.549Z,60.60
2018-02-22T12:34:28.284Z,60.83
2018-02-22T12:36:56.977Z,60.89
2018-02-22T12:39:25.658Z,60.85
2018-02-22T12:41:54.353Z,59.48
2018-02-22T12:44:23.044Z,59.78
2018-02-22T12:46:51.749Z,59.07
2018-02-22T12:49:21.225Z,59.87
2018-02-22T12:51:49.973Z,59.12
2018-02-22T12:54:18.666Z,59.96
2018-02-22T12:56:47.413Z,59.79
2018-02-22T12:59:19.602Z,59.16
2018-02-22T13:01:48.332Z,59.78
2018-02-22T13:04:17.038Z,59.49
2018-02-22T13:06:45.715Z,59.98
2018-02-22T13:09:14.426Z,61.16
2018-02-22T13:11:43.840Z,59.97
2018-02-22T13:14:12.549Z,60.63
2018-02-22T13:16:41.200Z,60.58
2018-02-22T13:19:09.828Z,61.10
2018-02-22T13:21:38.441Z,61.17
2018-02-22T13:24:07.045Z,59.56
2018-02-22T13:26:36.470Z,58.48
2018-02-22T13:29:05.098Z,59.98
2018-02-22T13:31:33.743Z,58.99
2018-02-22T13:34:20.159Z,59.20
2018-02-22T13:36:48.805Z,58.56
2018-02-22T13:39:18.231Z,59.25
2018-02-22T13:41:46.913Z,59.61
2018-02-22T13:44:33.194Z,59.14
2018-02-22T13:47:02.680Z,59.85
2018-02-22T13:49:49.019Z,59.42
2018-02-22T13:52:17.703Z,60.05
2018-02-22T13:54:47.105Z,59.76
2018-02-22T13:57:20.377Z,60.89
2018-02-22T13:59:49.736Z,60.48
2018-02-22T14:02:29.166Z,61.15
2018-02-22T14:04:57.847Z,60.18
2018-02-22T14:07:26.511Z,60.55
2018-02-22T14:09:55.124Z,61.27
2018-02-22T14:12:23.827Z,61.56
2018-02-22T14:14:52.468Z,61.82
2018-02-22T14:17:21.244Z,60.60
2018-02-22T14:19:49.942Z,60.67
2018-02-22T14:22:18.733Z,61.06
2018-02-22T14:24:47.398Z,60.45
2018-02-22T14:27:16.067Z,60.48
2018-02-22T14:29:45.459Z,60.48
2018-02-22T14:32:14.190Z,61.83
2018-02-22T14:34:42.810Z,61.87
2018-02-22T14:37:11.439Z,61.35
2018-02-22T14:39:40.775Z,62.39
2018-02-22T14:42:10.345Z,60.94
2018-02-22T14:44:39.045Z,62.09
2018-02-22T14:47:07.672Z,62.17
2018-02-22T14:49:36.276Z,63.19
2018-02-22T14:52:04.883Z,63.79
2018-02-22T14:54:33.455Z,63.86
2018-02-22T14:57:02.911Z,62.36
2018-02-22T14:59:31.492Z,62.71
2018-02-22T15:02:00.143Z,63.07
2018-02-22T15:04:28.780Z,63.76
2018-02-22T15:06:57.416Z,63.70
2018-02-22T15:09:26.116Z,63.96
2018-02-22T15:11:54.755Z,63.36
2018-02-22T15:14:24.140Z,64.55
2018-02-22T15:16:52.760Z,64.88
2018-02-22T15:19:22.130Z,64.35
2018-02-22T15:21:50.799Z,64.89
2018-02-22T15:24:19.475Z,64.94
2018-02-22T15:26:48.100Z,64.44
2018-02-22T15:29:17.474Z,65.20
2018-02-22T15:31:47.086Z,64.23
2018-02-22T15:34:15.781Z,65.40
2018-02-22T15:36:44.385Z,65.71
2018-02-22T15:39:13.022Z,65.90
2018-02-22T15:41:41.648Z,65.08
2018-02-22T15:44:11.028Z,64.40
2018-02-22T15:46:39.727Z,64.08
2018-02-22T15:49:13.063Z,65.09
2018-02-22T15:51:41.840Z,65.75
2018-02-22T15:54:10.538Z,66.04
2018-02-22T15:56:39.163Z,65.92
2018-02-22T15:59:07.789Z,65.92
2018-02-22T16:01:36.553Z,66.21
2018-02-22T16:04:05.275Z,65.75
2018-02-22T16:06:33.909Z,67.10
2018-02-22T16:09:02.532Z,67.03
2018-02-22T16:11:31.225Z,66.67
2018-02-22T16:13:59.854Z,66.94
2018-02-22T16:16:28.496Z,67.06
2018-02-22T16:18:58.062Z,67.57
2018-02-22T16:21:26.747Z,67.22
2018-02-22T16:23:55.403Z,66.81
2018-02-22T16:26:24.011Z,66.65
2018-02-22T16:28:52.647Z,66.77
2018-02-22T16:31:21.208Z,67.01
2018-02-22T16:33:50.594Z,66.41
2018-02-22T16:36:19.949Z,66.30
2018-02-22T16:38:49.411Z,66.34
2018-02-22T16:41:18.056Z,67.50
2018-02-22T16:43:46.643Z,67.76
2018-02-22T16:46:15.220Z,67.26
2018-02-22T16:48:43.869Z,67.05
2018-02-22T16:51:12.442Z,67.20
2018-02-22T16:53:41.012Z,67.08
2018-02-22T17:58:05.735Z,69.33
2018-02-22T18:00:35.069Z,69.15
2018-02-22T18:03:03.605Z,69.28
2018-02-22T18:05:32.831Z,69.54
2018-02-22T18:08:02.147Z,69.36
2018-02-22T18:10:30.702Z,69.44
2018-02-22T18:13:00.016Z,69.43
2018-02-22T18:15:28.619Z,69.66
2018-02-22T18:17:57.192Z,70.00
2018-02-22T18:20:25.759Z,69.61
2018-02-22T18:22:54.370Z,69.29
2018-02-22T18:25:22.933Z,68.99
2018-02-22T18:27:51.474Z,69.16
2018-02-22T18:30:19.999Z,69.41
2018-02-22T18:32:48.622Z,69.25
2018-02-22T18:35:17.190Z,69.17
2018-02-22T18:37:51.180Z,68.86
2018-02-22T18:40:25.215Z,69.04
2018-02-22T18:42:53.760Z,69.30
2018-02-22T18:45:22.354Z,69.44
2018-02-22T18:47:50.917Z,70.07
2018-02-22T18:50:20.191Z,69.64
2018-02-22T18:52:48.837Z,69.99
2018-02-22T18:55:17.401Z,70.38
2018-02-22T18:57:45.909Z,69.36
2018-02-22T19:00:14.407Z,69.36
2018-02-22T19:02:42.921Z,70.38
2018-02-22T19:05:12.358Z,69.73
2018-02-22T19:07:40.917Z,69.65
2018-02-22T19:10:10.335Z,69.39
2018-02-22T19:12:39.022Z,69.71
2018-02-22T19:15:08.016Z,69.90
2018-02-22T19:17:36.771Z,69.93
2018-02-22T19:20:05.288Z,70.32
2018-02-22T19:22:33.833Z,70.17
2018-02-22T19:25:02.388Z,70.34
2018-02-22T19:27:30.947Z,70.16
2018-02-22T19:29:59.545Z,71.02
2018-02-22T19:32:28.092Z,70.34
2018-02-22T19:34:56.656Z,71.12
2018-02-22T19:37:26.003Z,70.67
2018-02-22T19:39:54.565Z,71.23
2018-02-22T19:42:23.332Z,70.00
2018-02-22T19:44:52.640Z,69.87
2018-02-22T19:47:21.188Z,70.55
2018-02-22T19:49:49.805Z,70.67
2018-02-22T19:52:19.126Z,70.75
2018-02-22T19:54:47.794Z,70.59
2018-02-22T19:57:16.356Z,70.26
2018-02-22T19:59:44.923Z,70.28
2018-02-22T20:02:13.493Z,70.53
2018-02-22T20:04:42.048Z,71.29
2018-02-22T20:07:10.641Z,71.04
2018-02-22T20:09:39.199Z,71.76
2018-02-22T20:12:07.701Z,71.76
2018-02-22T20:14:36.913Z,71.58
2018-02-22T20:17:05.605Z,71.90
2018-02-22T20:19:34.218Z,71.75
2018-02-22T20:22:02.793Z,72.07
2018-02-22T20:24:31.375Z,72.25
2018-02-22T20:26:59.937Z,72.60
2018-02-22T20:29:28.475Z,72.32
2018-02-22T20:31:57.124Z,71.80
2018-02-22T20:34:26.507Z,72.13
2018-02-22T20:36:55.108Z,72.28
2018-02-22T20:39:23.690Z,72.49
2018-02-22T20:41:52.272Z,71.69
2018-02-22T20:44:20.892Z,71.98
2018-02-22T20:46:49.882Z,72.25
2018-02-22T20:49:18.458Z,72.02
2018-02-22T20:51:57.021Z,72.09
2018-02-22T20:54:25.662Z,72.45
2018-02-22T20:56:54.267Z,71.64
2018-02-22T21:34:18.697Z,71.83
2018-02-22T21:36:47.955Z,71.10
2018-02-22T21:39:16.665Z,71.61
2018-02-22T21:41:45.395Z,71.88
2018-02-22T21:44:14.512Z,72.03
2018-02-22T21:46:44.012Z,71.96
2018-02-22T21:49:12.635Z,71.93
2018-02-22T21:51:41.387Z,72.03
2018-02-22T21:54:10.108Z,72.13
2018-02-22T21:56:39.743Z,72.66
2018-02-22T21:59:09.642Z,72.63
2018-02-22T22:01:39.787Z,72.13
2018-02-22T22:04:08.518Z,72.46
2018-02-22T22:06:37.215Z,72.64
2018-02-22T22:09:05.973Z,72.75
2018-02-22T22:11:34.632Z,72.83
2018-02-22T22:14:04.117Z,72.48
2018-02-22T22:16:32.844Z,72.57
2018-02-22T22:19:03.022Z,72.64
2018-02-22T22:21:32.384Z,72.42
2018-02-22T22:24:04.056Z,72.80
2018-02-22T22:26:32.810Z,72.83
2018-02-22T22:29:02.072Z,73.00
2018-02-22T22:31:30.777Z,72.61
2018-02-22T22:34:00.185Z,73.00
2018-02-22T22:36:29.620Z,72.87
2018-02-22T22:38:58.271Z,72.95
2018-02-22T22:41:27.653Z,72.99
2018-02-22T22:43:59.117Z,72.85
2018-02-22T22:46:28.554Z,73.16
2018-02-22T22:48:57.192Z,73.06
2018-02-22T22:51:25.859Z,72.68
2018-02-22T22:53:55.091Z,72.33
2018-02-22T22:56:23.777Z,72.76
2018-02-22T22:58:54.050Z,72.31
2018-02-22T23:01:22.850Z,72.33
2018-02-22T23:03:51.514Z,72.50
2018-02-22T23:06:20.194Z,72.44
2018-02-22T23:08:48.933Z,72.14
2018-02-22T23:11:17.609Z,71.99
2018-02-22T23:13:47.415Z,71.89
2018-02-22T23:16:16.110Z,71.78
2018-02-22T23:18:44.775Z,71.85
2018-02-22T23:21:13.467Z,71.95
2018-02-22T23:23:42.852Z,72.60
2018-02-22T23:26:11.650Z,72.37
2018-02-22T23:28:41.708Z,72.74
2018-02-22T23:31:12.008Z,72.33
2018-02-22T23:33:42.487Z,72.79
2018-02-22T23:36:11.227Z,72.81
2018-02-22T23:38:40.034Z,72.74
2018-02-22T23:41:12.805Z,73.23
2018-02-22T23:43:42.276Z,73.50
2018-02-22T23:46:10.983Z,73.51
2018-02-22T23:48:39.615Z,72.65
2018-02-22T23:51:08.332Z,72.76
2018-02-22T23:53:37.070Z,72.79
2018-02-22T23:56:11.261Z,73.13
2018-02-22T23:58:41.202Z,72.93
